Time;durP1;ratioP1;P1;durP2;ratioP2;P2;SDS_P1;SDS_P2;PMS_P1;PMS_P2;Temp;Humidity;BMP_temperature;BMP_pressure;BME280_temperature;BME280_humidity;BME280_pressure;Samples;Min_cycle;Max_cycle;Signal;HPM_P1;HPM_P2
2021/06/11 00:01:15;;;;;;;12.50;11.18;;;;;;;19.74;69.45;100695.88;5031745;28;20049;-67
2021/06/11 00:03:42;;;;;;;11.20;10.00;;;;;;;19.70;69.33;100691.72;5028161;28;20056;-68
2021/06/11 00:06:08;;;;;;;12.90;11.70;;;;;;;19.67;69.36;100697.38;5034831;28;20045;-63
2021/06/11 00:08:35;;;;;;;11.80;10.68;;;;;;;19.64;69.59;100692.22;5038576;28;20497;-66
2021/06/11 00:11:02;;;;;;;13.88;11.10;;;;;;;19.63;69.75;100692.34;5044885;28;20379;-65
2021/06/11 00:13:29;;;;;;;11.45;10.35;;;;;;;19.60;69.72;100696.13;5050342;28;20040;-63
2021/06/11 00:15:56;;;;;;;12.38;10.35;;;;;;;19.61;69.84;100696.00;5048711;28;20545;-65
2021/06/11 00:18:22;;;;;;;12.20;11.00;;;;;;;19.63;70.00;100701.28;5039176;28;20416;-64
2021/06/11 00:20:49;;;;;;;12.13;10.90;;;;;;;19.64;69.91;100694.91;5029429;28;20060;-66
2021/06/11 00:23:15;;;;;;;11.75;10.45;;;;;;;19.66;69.78;100700.16;5033884;28;20494;-63
2021/06/11 00:25:42;;;;;;;11.98;10.77;;;;;;;19.66;69.92;100695.66;5035800;28;20413;-64
2021/06/11 00:28:08;;;;;;;13.32;10.88;;;;;;;19.68;69.57;100698.19;5030291;28;20052;-65
2021/06/11 00:30:35;;;;;;;12.10;10.90;;;;;;;19.65;69.53;100695.78;5040987;28;20139;-64
2021/06/11 00:33:05;;;;;;;11.30;10.20;;;;;;;19.65;69.54;100698.47;5039093;28;20485;-64
2021/06/11 00:35:32;;;;;;;12.00;10.50;;;;;;;19.62;70.16;100696.88;5035982;28;20040;-64
2021/06/11 00:37:59;;;;;;;11.38;10.30;;;;;;;19.61;69.88;100700.53;5053202;28;20481;-63
2021/06/11 00:40:26;;;;;;;11.25;10.20;;;;;;;19.58;69.59;100698.94;5037301;28;20048;-66
2021/06/11 00:42:52;;;;;;;12.02;10.35;;;;;;;19.58;70.21;100703.47;5034878;28;20069;-64
2021/06/11 00:45:19;;;;;;;12.10;10.27;;;;;;;19.59;70.27;100700.66;5043964;28;20049;-64
2021/06/11 00:47:46;;;;;;;11.65;10.15;;;;;;;19.58;70.08;100696.25;5040489;28;20057;-67
2021/06/11 00:50:29;;;;;;;11.20;10.10;;;;;;;19.57;70.25;100699.91;5042424;28;20057;-64
2021/06/11 00:52:56;;;;;;;12.45;10.45;;;;;;;19.57;70.32;100701.75;5062060;28;20076;-64
2021/06/11 00:55:23;;;;;;;13.85;10.70;;;;;;;19.57;70.48;100704.44;5043491;28;20611;-63
2021/06/11 00:57:49;;;;;;;12.10;10.90;;;;;;;19.51;70.64;100691.50;5041684;28;20057;-63
2021/06/11 01:00:18;;;;;;;12.55;11.35;;;;;;;19.44;70.60;100701.84;5032471;28;20056;-63
2021/06/11 01:02:45;;;;;;;12.32;11.13;;;;;;;19.38;71.08;100699.63;5034532;28;20080;-63
2021/06/11 01:05:12;;;;;;;13.88;12.50;;;;;;;19.33;71.61;100703.66;5039590;28;20540;-61
2021/06/11 01:07:42;;;;;;;13.00;11.73;;;;;;;19.30;71.90;100703.91;5036661;28;20051;-62
2021/06/11 01:10:10;;;;;;;13.15;11.77;;;;;;;19.23;71.90;100700.81;5035076;28;20516;-66
2021/06/11 01:12:37;;;;;;;14.20;12.70;;;;;;;19.21;72.12;100711.69;5036770;28;20049;-62
2021/06/11 01:15:06;;;;;;;13.00;11.70;;;;;;;19.15;72.52;100714.84;5056570;28;20053;-66
2021/06/11 01:17:36;;;;;;;13.30;12.00;;;;;;;19.12;72.49;100712.41;5033946;28;20059;-67
2021/06/11 01:20:07;;;;;;;12.90;11.65;;;;;;;19.09;72.80;100711.78;5033741;28;20044;-64
2021/06/11 01:22:36;;;;;;;13.95;12.48;;;;;;;19.08;72.90;100707.38;5037851;28;20560;-66
2021/06/11 01:25:16;;;;;;;14.57;12.80;;;;;;;19.03;73.37;100710.44;5046966;28;20049;-64
2021/06/11 01:27:45;;;;;;;15.27;12.48;;;;;;;19.01;73.58;100708.84;5029582;28;20052;-63
2021/06/11 01:30:25;;;;;;;14.17;12.80;;;;;;;18.95;73.74;100702.13;5035496;28;20056;-65
2021/06/11 01:32:55;;;;;;;15.88;13.50;;;;;;;18.93;73.90;100710.28;5016767;28;20049;-63
2021/06/11 01:35:29;;;;;;;14.05;12.75;;;;;;;18.91;73.94;100704.16;5047010;28;20420;-64
2021/06/11 01:38:01;;;;;;;15.20;13.60;;;;;;;18.88;74.30;100696.38;5040398;28;20053;-63
2021/06/11 01:40:30;;;;;;;14.70;13.30;;;;;;;18.89;74.77;100705.25;5026795;28;20056;-64
2021/06/11 01:42:59;;;;;;;13.65;12.30;;;;;;;18.88;74.72;100695.53;5030019;28;21452;-64
2021/06/11 01:45:26;;;;;;;15.32;13.73;;;;;;;18.87;74.78;100696.50;5029794;28;20048;-64
2021/06/11 01:47:53;;;;;;;13.88;12.50;;;;;;;18.81;75.13;100702.31;5028395;28;20052;-66
2021/06/11 01:50:29;;;;;;;13.52;12.23;;;;;;;18.74;75.93;100704.59;5028870;28;20061;-66
2021/06/11 01:52:56;;;;;;;14.55;13.20;;;;;;;18.77;76.03;100700.84;5025634;28;20647;-63
2021/06/11 01:55:25;;;;;;;15.73;12.70;;;;;;;18.76;75.80;100699.97;5030424;28;20153;-63
2021/06/11 01:57:53;;;;;;;15.68;13.70;;;;;;;18.72;76.11;100695.00;5037684;28;20056;-68
2021/06/11 02:00:20;;;;;;;15.80;14.32;;;;;;;18.69;76.25;100687.16;5033192;28;20486;-65
2021/06/11 02:02:47;;;;;;;14.48;12.98;;;;;;;18.68;76.73;100689.00;5041213;28;20110;-65
2021/06/11 02:05:14;;;;;;;14.77;13.25;;;;;;;18.68;76.60;100691.69;5039926;28;20045;-65
2021/06/11 02:07:44;;;;;;;15.05;13.50;;;;;;;18.64;76.61;100692.88;5043808;28;20057;-64
2021/06/11 02:10:12;;;;;;;15.37;13.73;;;;;;;18.64;76.49;100689.34;5029388;28;20488;-65
2021/06/11 02:12:39;;;;;;;15.90;13.48;;;;;;;18.50;77.02;100693.03;5030088;28;20053;-67
2021/06/11 02:15:10;;;;;;;15.82;14.32;;;;;;;18.37;77.62;100698.47;5040424;28;20119;-62
2021/06/11 02:17:39;;;;;;;15.75;14.15;;;;;;;18.25;78.62;100695.84;5028139;28;20659;-66
2021/06/11 02:20:09;;;;;;;16.08;14.20;;;;;;;18.20;78.88;100688.13;5043272;28;20051;-63
2021/06/11 02:22:38;;;;;;;15.52;14.02;;;;;;;18.19;79.06;100689.09;5043614;28;20049;-64
2021/06/11 02:25:05;;;;;;;18.15;14.80;;;;;;;18.13;79.49;100685.03;5041116;28;20068;-63
2021/06/11 02:27:35;;;;;;;16.20;14.35;;;;;;;18.06;79.42;100685.63;5036571;28;20051;-64
2021/06/11 02:30:05;;;;;;;15.82;14.07;;;;;;;18.08;79.92;100691.72;5020068;28;20048;-64
2021/06/11 02:32:34;;;;;;;15.60;14.07;;;;;;;18.02;80.28;100686.78;5042657;28;20059;-66
2021/06/11 02:35:05;;;;;;;18.88;14.70;;;;;;;18.02;80.67;100690.34;5051890;28;20094;-63
2021/06/11 02:37:31;;;;;;;16.85;15.07;;;;;;;18.05;80.89;100691.94;5033768;28;20068;-66
2021/06/11 02:39:58;;;;;;;17.10;15.30;;;;;;;18.11;80.91;100699.50;5046359;28;20131;-64
2021/06/11 02:42:27;;;;;;;19.45;15.45;;;;;;;18.12;80.52;100685.16;5022792;28;20676;-66
2021/06/11 02:45:02;;;;;;;17.20;14.57;;;;;;;18.13;80.50;100689.53;5049192;28;20048;-66
2021/06/11 02:47:38;;;;;;;18.10;13.88;;;;;;;18.11;80.21;100691.47;5045518;28;20057;-66
2021/06/11 02:50:10;;;;;;;15.55;13.95;;;;;;;18.07;80.34;100690.00;5047456;28;20049;-68
2021/06/11 02:52:45;;;;;;;16.98;15.38;;;;;;;18.04;81.08;100688.41;5055732;28;20133;-63
2021/06/11 02:55:15;;;;;;;17.73;15.43;;;;;;;18.06;80.79;100691.81;5038682;28;20484;-64
2021/06/11 02:57:48;;;;;;;16.20;14.57;;;;;;;18.08;81.21;100695.25;5034699;28;20059;-65
2021/06/11 03:00:16;;;;;;;18.10;16.00;;;;;;;18.08;80.56;100697.09;5034271;28;20061;-66
2021/06/11 03:02:58;;;;;;;17.88;15.20;;;;;;;18.07;80.73;100698.91;5019828;28;20052;-66
2021/06/11 03:05:25;;;;;;;17.83;15.93;;;;;;;18.05;80.93;100692.78;5034671;28;20142;-63
2021/06/11 03:07:56;;;;;;;17.80;16.10;;;;;;;18.03;81.31;100692.06;5027793;28;20064;-65
2021/06/11 03:10:30;;;;;;;17.60;15.80;;;;;;;17.97;81.29;100688.94;5037179;28;20076;-62
2021/06/11 03:13:01;;;;;;;18.92;16.80;;;;;;;17.92;81.63;100685.78;5031588;28;20048;-64
2021/06/11 03:15:31;;;;;;;18.38;16.48;;;;;;;17.86;82.23;100684.38;5026704;28;20051;-65
2021/06/11 03:18:18;;;;;;;18.08;16.27;;;;;;;17.84;82.49;100689.00;5040537;28;20044;-66
2021/06/11 03:20:45;;;;;;;17.92;16.13;;;;;;;17.82;82.56;100686.41;5037352;28;20530;-66
2021/06/11 03:23:19;;;;;;;18.92;16.58;;;;;;;17.86;82.96;100693.28;5029367;28;20653;-65
2021/06/11 03:25:51;;;;;;;18.23;16.48;;;;;;;17.90;82.47;100693.91;5034675;28;20049;-65
2021/06/11 03:28:22;;;;;;;18.73;16.92;;;;;;;17.86;82.19;100698.63;5030675;28;20056;-64
2021/06/11 03:30:51;;;;;;;;;;;;;;;17.81;82.44;100699.91;5038086;28;20056;-65
2021/06/11 03:33:22;;;;;;;18.77;16.77;;;;;;;17.77;82.87;100699.31;5046689;28;19931;-64
2021/06/11 03:35:58;;;;;;;21.30;17.30;;;;;;;17.76;83.27;100707.44;5029647;28;20048;-64
2021/06/11 03:38:27;;;;;;;20.50;15.73;;;;;;;17.79;83.31;100713.41;5034694;28;20512;-65
2021/06/11 03:40:56;;;;;;;17.60;15.85;;;;;;;17.83;83.09;100709.56;5034126;28;20052;-65
2021/06/11 03:43:24;;;;;;;18.50;15.93;;;;;;;17.84;82.78;100705.06;5028897;28;20057;-63
2021/06/11 03:45:52;;;;;;;22.10;16.38;;;;;;;17.87;83.00;100710.22;5040324;28;20045;-64
2021/06/11 03:48:27;;;;;;;17.77;15.90;;;;;;;17.85;82.55;100702.28;5031079;28;20063;-65
2021/06/11 03:50:54;;;;;;;19.17;15.98;;;;;;;17.89;83.04;100708.28;5034514;28;20057;-62
2021/06/11 03:53:24;;;;;;;18.75;16.27;;;;;;;17.95;82.95;100713.16;5032952;28;20049;-63
2021/06/11 03:55:59;;;;;;;17.48;15.63;;;;;;;18.01;82.91;100706.53;5030746;28;20607;-66
2021/06/11 03:58:31;;;;;;;20.75;15.95;;;;;;;18.06;82.34;100707.06;5032489;28;21222;-63
2021/06/11 04:01:00;;;;;;;17.02;15.32;;;;;;;18.09;82.23;100706.84;5022693;28;20401;-64
2021/06/11 04:03:27;;;;;;;17.55;15.63;;;;;;;18.09;82.02;100713.06;5055897;28;20049;-64
2021/06/11 04:06:25;;;;;;;16.08;14.43;;;;;;;18.10;81.68;100713.91;5028891;28;20077;-64
2021/06/11 04:08:59;;;;;;;17.33;15.57;;;;;;;18.12;81.34;100714.63;5031036;28;20048;-64
2021/06/11 04:11:29;;;;;;;16.50;14.80;;;;;;;18.12;80.97;100712.81;5030502;28;20052;-67
2021/06/11 04:13:58;;;;;;;18.43;16.53;;;;;;;18.16;80.93;100716.97;5026080;28;20064;-64
2021/06/11 04:16:40;;;;;;;17.63;15.85;;;;;;;18.19;81.02;100708.72;5024686;28;20486;-65
2021/06/11 04:19:15;;;;;;;16.90;15.13;;;;;;;18.17;80.59;100717.84;5035776;28;20542;-66
2021/06/11 04:21:43;;;;;;;17.50;15.70;;;;;;;18.15;80.84;100714.41;5031078;28;20059;-66
2021/06/11 04:24:12;;;;;;;18.00;16.13;;;;;;;18.15;80.65;100719.75;5030367;28;20101;-64
2021/06/11 04:26:40;;;;;;;17.70;15.73;;;;;;;18.16;80.74;100724.16;5040017;28;20492;-64
2021/06/11 04:29:12;;;;;;;17.58;15.82;;;;;;;18.17;80.46;100723.19;5024346;28;21281;-64
2021/06/11 04:31:39;;;;;;;20.15;16.15;;;;;;;18.20;80.43;100723.84;5031377;28;20057;-65
2021/06/11 04:34:06;;;;;;;17.85;16.08;;;;;;;18.23;80.20;100728.13;5037909;28;20050;-62
2021/06/11 04:36:34;;;;;;;17.48;15.68;;;;;;;18.23;80.09;100720.94;5033492;28;20040;-64
2021/06/11 04:39:07;;;;;;;18.10;16.08;;;;;;;18.24;80.10;100719.09;5029614;28;20054;-61
2021/06/11 04:41:35;;;;;;;17.63;15.80;;;;;;;18.29;80.30;100722.28;5030793;28;20048;-61
2021/06/11 04:44:04;;;;;;;17.98;15.95;;;;;;;18.35;80.12;100713.81;5051008;28;20045;-66
2021/06/11 04:46:30;;;;;;;20.98;15.25;;;;;;;18.43;80.48;100727.47;5037959;28;20040;-64
2021/06/11 04:48:57;;;;;;;18.35;16.38;;;;;;;18.49;79.78;100724.34;5035960;28;20703;-65
2021/06/11 04:51:24;;;;;;;18.05;16.15;;;;;;;18.57;79.85;100726.47;5024542;28;20053;-64
2021/06/11 04:53:51;;;;;;;17.90;15.82;;;;;;;18.68;80.24;100723.88;5027144;28;20544;-64
2021/06/11 04:56:18;;;;;;;18.08;15.25;;;;;;;18.76;78.61;100720.59;5029521;28;20045;-65
2021/06/11 04:58:47;;;;;;;16.88;14.25;;;;;;;18.82;78.14;100722.81;5026115;28;20045;-63
2021/06/11 05:01:14;;;;;;;16.85;15.15;;;;;;;18.89;78.67;100716.84;5034226;28;20044;-61
2021/06/11 05:03:41;;;;;;;16.75;15.00;;;;;;;18.97;78.47;100718.97;5025326;28;20136;-67
2021/06/11 05:06:08;;;;;;;15.60;13.90;;;;;;;19.08;78.51;100721.66;5040920;28;20071;-64
2021/06/11 05:08:35;;;;;;;17.95;14.77;;;;;;;19.17;78.27;100723.66;5030160;28;20041;-64
2021/06/11 05:11:03;;;;;;;16.30;14.48;;;;;;;19.26;77.88;100722.06;5033643;28;20055;-66
2021/06/11 05:13:30;;;;;;;17.35;15.63;;;;;;;19.30;77.81;100718.19;5043587;28;20236;-64
2021/06/11 05:15:57;;;;;;;18.75;15.30;;;;;;;19.36;77.13;100722.22;5028922;28;20053;-64
2021/06/11 05:18:29;;;;;;;17.35;15.52;;;;;;;19.41;77.04;100720.00;5029379;28;20652;-66
2021/06/11 05:20:56;;;;;;;19.35;16.58;;;;;;;19.47;77.00;100723.09;5031849;28;20728;-65
2021/06/11 05:23:23;;;;;;;16.90;15.15;;;;;;;19.52;76.76;100725.41;5011613;28;20176;-64
2021/06/11 05:25:50;;;;;;;18.17;16.33;;;;;;;19.58;76.33;100728.50;5028495;28;20060;-65
2021/06/11 05:28:17;;;;;;;17.67;15.77;;;;;;;19.61;76.14;100720.19;5031554;28;20059;-64
2021/06/11 05:30:44;;;;;;;16.83;15.15;;;;;;;19.69;76.30;100722.25;5026243;28;20041;-64
2021/06/11 05:33:11;;;;;;;16.50;14.75;;;;;;;19.76;75.77;100726.16;5033982;28;20563;-63
2021/06/11 05:35:38;;;;;;;17.08;15.25;;;;;;;19.84;75.64;100726.41;5026677;28;20053;-65
2021/06/11 05:38:06;;;;;;;15.63;14.02;;;;;;;19.91;74.35;100721.41;5029132;28;20248;-67
2021/06/11 05:40:35;;;;;;;15.32;13.77;;;;;;;20.00;73.67;100725.16;5025603;28;20053;-66
2021/06/11 05:43:02;;;;;;;16.90;14.70;;;;;;;20.05;72.58;100726.50;5031814;28;20060;-66
2021/06/11 05:45:30;;;;;;;15.18;13.55;;;;;;;20.14;72.29;100722.22;5033830;28;20052;-66
2021/06/11 05:47:59;;;;;;;14.90;13.32;;;;;;;20.24;71.57;100728.56;5022675;28;20048;-66
2021/06/11 05:50:27;;;;;;;15.10;13.50;;;;;;;20.34;70.59;100732.19;5036878;28;20138;-67
2021/06/11 05:52:54;;;;;;;17.67;13.20;;;;;;;20.42;70.46;100731.59;5005963;28;20462;-67
2021/06/11 05:55:21;;;;;;;15.68;13.25;;;;;;;20.56;70.25;100726.78;5039567;28;21396;-65
2021/06/11 05:57:48;;;;;;;15.07;13.18;;;;;;;20.71;69.06;100732.72;5029684;28;20052;-64
2021/06/11 06:00:15;;;;;;;15.80;13.45;;;;;;;20.85;67.84;100729.72;5026047;28;20049;-66
2021/06/11 06:02:42;;;;;;;14.30;12.90;;;;;;;20.99;67.17;100715.94;5037202;28;20049;-59
2021/06/11 06:05:09;;;;;;;14.32;12.82;;;;;;;21.29;66.65;100725.94;5027037;28;20064;-56
2021/06/11 06:07:36;;;;;;;14.70;12.88;;;;;;;21.99;65.21;100727.88;5038510;28;20049;-56
2021/06/11 06:10:04;;;;;;;13.43;12.13;;;;;;;24.04;59.12;100718.47;5030621;28;20053;-56
2021/06/11 06:12:30;;;;;;;11.82;10.32;;;;;;;26.23;53.14;100719.34;5039677;28;20061;-56
2021/06/11 06:14:58;;;;;;;13.02;10.15;;;;;;;28.18;46.74;100720.06;5029852;28;20060;-56
2021/06/11 06:17:31;;;;;;;12.25;10.32;;;;;;;29.73;42.70;100724.34;5023475;28;20489;-56
2021/06/11 06:19:57;;;;;;;10.98;9.35;;;;;;;31.04;39.63;100714.94;5029591;28;20045;-58
2021/06/11 06:22:36;;;;;;;13.30;9.73;;;;;;;31.47;36.39;100725.88;5021676;28;20055;-57
2021/06/11 06:25:04;;;;;;;10.32;9.27;;;;;;;31.48;35.08;100724.81;5020744;28;20049;-58
2021/06/11 06:27:32;;;;;;;12.93;9.32;;;;;;;31.62;36.47;100720.28;5030706;28;20055;-57
2021/06/11 06:29:58;;;;;;;12.18;8.93;;;;;;;32.19;34.46;100717.25;5032803;28;20366;-57
2021/06/11 06:32:29;;;;;;;11.52;8.40;;;;;;;32.11;34.66;100720.13;5038254;28;20045;-56
2021/06/11 06:34:57;;;;;;;8.95;7.97;;;;;;;32.05;35.29;100721.78;5028617;28;20056;-58
2021/06/11 06:37:24;;;;;;;10.15;8.48;;;;;;;32.70;34.52;100716.75;5027841;28;20076;-56
2021/06/11 06:39:51;;;;;;;15.10;8.32;;;;;;;33.14;32.05;100720.81;5041026;28;20480;-56
2021/06/11 06:42:18;;;;;;;9.50;7.38;;;;;;;33.41;32.36;100722.50;5022907;28;20053;-57
2021/06/11 06:44:45;;;;;;;9.75;8.23;;;;;;;33.31;31.86;100719.38;5025998;28;20060;-57
2021/06/11 06:47:12;;;;;;;11.30;8.98;;;;;;;33.25;32.50;100722.94;5022373;28;20800;-57
2021/06/11 06:49:38;;;;;;;10.35;8.20;;;;;;;33.11;31.81;100727.56;5024439;28;20053;-56
2021/06/11 06:52:05;;;;;;;9.35;8.23;;;;;;;33.46;31.95;100722.72;5031572;28;20170;-63
2021/06/11 06:54:33;;;;;;;8.80;7.85;;;;;;;33.35;30.97;100723.38;5021353;28;20049;-63
2021/06/11 06:57:00;;;;;;;9.88;7.82;;;;;;;33.06;31.62;100721.84;5035742;28;20037;-62
2021/06/11 06:59:27;;;;;;;10.02;8.20;;;;;;;32.96;32.71;100721.44;5031368;28;20044;-63
2021/06/11 07:02:00;;;;;;;11.05;9.05;;;;;;;32.76;33.13;100721.41;5020404;28;20083;-62
2021/06/11 07:04:28;;;;;;;13.13;8.82;;;;;;;32.58;33.52;100718.44;5036725;28;20045;-65
2021/06/11 07:06:55;;;;;;;11.07;7.93;;;;;;;32.53;35.08;100718.19;5014337;28;20057;-64
2021/06/11 07:09:22;;;;;;;11.10;8.50;;;;;;;32.70;34.27;100716.75;5024479;28;20064;-63
2021/06/11 07:11:49;;;;;;;9.93;8.38;;;;;;;32.83;34.17;100719.53;5034357;28;20068;-64
2021/06/11 07:14:16;;;;;;;9.45;8.45;;;;;;;33.08;33.85;100719.75;5033467;28;20076;-64
2021/06/11 07:16:43;;;;;;;10.73;9.05;;;;;;;33.17;33.25;100710.28;5032034;28;20416;-65
2021/06/11 07:19:10;;;;;;;10.75;8.82;;;;;;;33.01;32.43;100717.03;5032618;28;20076;-64
2021/06/11 07:21:37;;;;;;;10.13;8.55;;;;;;;33.00;33.27;100714.50;5034009;28;20136;-68
2021/06/11 07:24:04;;;;;;;10.07;8.70;;;;;;;32.82;33.47;100717.84;5034366;28;20523;-62
2021/06/11 07:26:31;;;;;;;10.10;9.02;;;;;;;32.42;33.00;100712.28;5033063;28;20041;-64
2021/06/11 07:28:57;;;;;;;9.23;8.43;;;;;;;32.17;33.93;100705.59;5036935;28;20053;-63
2021/06/11 07:31:25;;;;;;;10.63;9.45;;;;;;;31.92;33.07;100710.78;5033806;28;20064;-63
2021/06/11 07:33:52;;;;;;;10.00;9.00;;;;;;;31.49;34.23;100709.22;5041997;28;20094;-64
2021/06/11 07:36:18;;;;;;;9.70;8.80;;;;;;;31.37;34.51;100712.50;5035190;28;20063;-63
2021/06/11 07:38:45;;;;;;;10.77;9.50;;;;;;;31.02;35.32;100711.56;5029067;28;20045;-64
2021/06/11 07:41:11;;;;;;;11.25;9.02;;;;;;;30.78;36.02;100709.25;5046796;28;20466;-64
2021/06/11 07:43:38;;;;;;;9.32;8.40;;;;;;;29.79;36.59;100699.00;5036762;28;20072;-65
2021/06/11 07:46:04;;;;;;;9.60;8.65;;;;;;;28.76;39.94;100710.53;5044166;28;20049;-65
2021/06/11 07:48:31;;;;;;;11.10;9.35;;;;;;;28.04;41.92;100706.34;5033780;28;20516;-60
2021/06/11 07:50:57;;;;;;;11.15;8.77;;;;;;;27.88;43.51;100701.81;5033710;28;20056;-63
2021/06/11 07:53:24;;;;;;;9.70;8.80;;;;;;;28.03;42.74;100696.47;5042794;28;20041;-63
2021/06/11 07:55:51;;;;;;;10.35;9.35;;;;;;;27.78;41.72;100701.19;5036673;28;20050;-64
2021/06/11 07:58:18;;;;;;;9.88;8.90;;;;;;;27.61;42.64;100705.00;5042362;28;20068;-64
2021/06/11 08:00:44;;;;;;;13.13;9.05;;;;;;;27.61;42.30;100694.13;5024114;28;20078;-65
2021/06/11 08:03:11;;;;;;;12.45;10.18;;;;;;;27.89;42.68;100695.34;5012447;28;20059;-64
2021/06/11 08:05:39;;;;;;;11.75;10.30;;;;;;;28.59;40.87;100698.06;5032732;28;20052;-67
2021/06/11 08:08:07;;;;;;;12.55;10.45;;;;;;;29.28;39.59;100694.22;5041309;28;20059;-65
2021/06/11 08:10:34;;;;;;;11.65;10.27;;;;;;;29.66;38.59;100700.50;5042207;28;22447;-62
2021/06/11 08:13:02;;;;;;;11.57;10.02;;;;;;;30.12;37.60;100694.00;5048785;28;20809;-62
2021/06/11 08:15:28;;;;;;;13.05;10.13;;;;;;;30.61;36.58;100703.19;5047350;28;20071;-65
2021/06/11 08:17:55;;;;;;;10.95;9.18;;;;;;;30.99;36.99;100700.19;5029667;28;20091;-61
2021/06/11 08:20:22;;;;;;;11.02;9.73;;;;;;;31.10;36.16;100696.94;5022464;28;20049;-64
2021/06/11 08:22:49;;;;;;;11.10;9.90;;;;;;;30.81;36.84;100697.94;5039940;28;20509;-67
2021/06/11 08:25:15;;;;;;;11.90;9.32;;;;;;;30.09;38.68;100697.94;5037414;28;20354;-63
2021/06/11 08:27:42;;;;;;;12.48;9.88;;;;;;;29.39;40.14;100703.03;5031735;28;20131;-62
2021/06/11 08:30:10;;;;;;;12.85;10.00;;;;;;;28.85;41.65;100700.44;5035134;28;20157;-64
2021/06/11 08:32:52;;;;;;;11.57;10.25;;;;;;;28.51;41.23;100709.00;5039472;28;20064;-64
2021/06/11 08:35:20;;;;;;;12.90;10.00;;;;;;;28.18;41.83;100698.28;5043050;28;20060;-63
2021/06/11 08:37:46;;;;;;;10.15;8.60;;;;;;;27.80;40.88;100699.16;5041243;28;20045;-63
2021/06/11 08:40:14;;;;;;;10.07;9.10;;;;;;;27.59;41.05;100705.16;5034378;28;20072;-64
2021/06/11 08:42:43;;;;;;;10.30;9.15;;;;;;;27.62;42.24;100699.38;5039379;28;20136;-63
2021/06/11 08:45:10;;;;;;;11.57;9.32;;;;;;;27.80;42.19;100696.44;5036856;28;20048;-66
2021/06/11 08:47:38;;;;;;;9.82;8.93;;;;;;;27.82;41.88;100702.56;5039942;28;20049;-64
2021/06/11 08:50:06;;;;;;;12.98;10.48;;;;;;;27.84;42.58;100701.34;5041211;28;20056;-61
2021/06/11 08:52:33;;;;;;;14.02;10.20;;;;;;;27.94;43.52;100698.41;5047786;28;20073;-64
2021/06/11 08:54:59;;;;;;;14.13;10.60;;;;;;;28.01;42.94;100695.84;5046946;28;20052;-62
2021/06/11 08:57:26;;;;;;;11.45;10.25;;;;;;;28.03;43.11;100689.16;5035607;28;20052;-63
2021/06/11 08:59:53;;;;;;;12.77;10.20;;;;;;;27.89;42.61;100692.63;5049725;28;20409;-64
2021/06/11 09:02:22;;;;;;;10.75;9.65;;;;;;;27.84;41.82;100684.19;5046879;28;20505;-62
2021/06/11 09:04:57;;;;;;;11.02;9.93;;;;;;;27.71;42.09;100694.75;5044722;28;20095;-64
2021/06/11 09:07:32;;;;;;;13.95;10.35;;;;;;;27.71;42.84;100698.31;5040823;28;20421;-61
2021/06/11 09:10:04;;;;;;;11.98;9.98;;;;;;;27.77;43.12;100694.06;5031298;28;20899;-63
2021/06/11 09:12:34;;;;;;;11.60;9.63;;;;;;;27.74;43.71;100689.81;5039063;28;20059;-65
2021/06/11 09:15:11;;;;;;;11.13;9.45;;;;;;;27.67;43.27;100693.44;5051904;28;20044;-65
2021/06/11 09:17:49;;;;;;;11.00;9.80;;;;;;;27.70;42.66;100687.63;5049700;28;20041;-67
2021/06/11 09:20:21;;;;;;;10.82;9.82;;;;;;;27.73;42.56;100687.25;5044419;28;20052;-65
2021/06/11 09:22:55;;;;;;;12.20;9.43;;;;;;;27.78;43.00;100684.88;5042108;28;21215;-65
2021/06/11 09:25:23;;;;;;;11.75;10.00;;;;;;;27.76;42.06;100685.03;5042779;28;20051;-65
2021/06/11 09:27:56;;;;;;;11.48;10.27;;;;;;;27.78;42.22;100688.44;5045411;28;20062;-65
2021/06/11 09:30:36;;;;;;;13.30;9.85;;;;;;;27.71;41.07;100689.31;5040741;28;20052;-65
2021/06/11 09:33:06;;;;;;;12.07;9.60;;;;;;;27.53;40.90;100690.38;5043727;28;20041;-60
2021/06/11 09:35:55;;;;;;;11.52;10.38;;;;;;;27.43;42.99;100684.25;5040907;28;20045;-63
2021/06/11 09:38:32;;;;;;;10.35;9.40;;;;;;;27.36;42.05;100694.16;5021064;28;20044;-67
2021/06/11 09:40:58;;;;;;;9.70;8.85;;;;;;;27.32;42.60;100690.09;5039580;28;20576;-66
2021/06/11 09:43:26;;;;;;;11.98;10.80;;;;;;;27.28;41.21;100688.72;5041203;28;20049;-65
2021/06/11 09:46:03;;;;;;;10.93;9.13;;;;;;;27.25;41.08;100689.06;5055647;28;20056;-64
2021/06/11 09:48:39;;;;;;;11.18;9.98;;;;;;;27.21;40.85;100688.59;5054610;28;20084;-63
2021/06/11 09:51:16;;;;;;;9.35;8.52;;;;;;;27.27;42.02;100691.59;5042725;28;20562;-64
2021/06/11 09:53:43;;;;;;;9.90;9.00;;;;;;;27.29;41.44;100682.25;5041354;28;20071;-63
2021/06/11 09:56:27;;;;;;;11.15;9.27;;;;;;;27.36;40.91;100690.59;5047624;28;20106;-66
2021/06/11 09:58:59;;;;;;;10.38;9.02;;;;;;;27.43;41.53;100687.00;5066856;28;20104;-65
2021/06/11 10:01:26;;;;;;;9.05;8.00;;;;;;;27.53;42.01;100687.66;5059311;28;20139;-64
2021/06/11 10:03:58;;;;;;;9.27;8.32;;;;;;;27.62;41.28;100679.50;5044311;28;20079;-63
2021/06/11 10:06:27;;;;;;;11.13;8.70;;;;;;;27.69;41.57;100680.50;5040030;28;20139;-65
2021/06/11 10:08:53;;;;;;;9.80;8.80;;;;;;;27.75;42.33;100682.50;5038304;28;20135;-65
2021/06/11 10:11:25;;;;;;;10.02;9.10;;;;;;;27.75;40.23;100679.78;5033726;28;20052;-63
2021/06/11 10:13:53;;;;;;;9.32;8.38;;;;;;;27.54;39.81;100675.75;5040520;28;20053;-64
2021/06/11 10:16:20;;;;;;;9.18;8.23;;;;;;;27.44;40.91;100677.81;5041429;28;20041;-64
2021/06/11 10:18:49;;;;;;;7.97;7.18;;;;;;;27.50;41.43;100673.56;5048547;28;20074;-64
2021/06/11 10:21:15;;;;;;;7.45;6.60;;;;;;;27.65;39.97;100673.69;5052012;28;20052;-65
2021/06/11 10:23:42;;;;;;;7.05;6.18;;;;;;;27.82;37.45;100669.91;5046637;28;20057;-63
2021/06/11 10:26:10;;;;;;;5.18;4.57;;;;;;;27.92;35.68;100675.97;5036084;28;20050;-63
2021/06/11 10:28:42;;;;;;;5.10;4.47;;;;;;;27.94;34.15;100669.31;5044386;28;20056;-64
2021/06/11 10:31:10;;;;;;;5.90;4.50;;;;;;;27.94;34.45;100672.03;5051598;28;20072;-64
2021/06/11 10:33:43;;;;;;;4.50;4.10;;;;;;;28.06;34.27;100677.94;5034799;28;20105;-65
2021/06/11 10:36:24;;;;;;;3.92;3.45;;;;;;;28.14;34.23;100666.16;5022598;28;20048;-63
2021/06/11 10:38:53;;;;;;;5.72;5.22;;;;;;;28.25;36.94;100665.78;5039311;28;20041;-61
2021/06/11 10:41:20;;;;;;;5.80;5.18;;;;;;;28.27;36.24;100659.13;5035364;28;20583;-65
2021/06/11 10:43:46;;;;;;;8.30;5.32;;;;;;;28.31;36.30;100659.63;5033466;28;20041;-65
2021/06/11 10:46:31;;;;;;;6.28;5.68;;;;;;;28.35;36.08;100662.81;5037677;28;20048;-64
2021/06/11 10:49:04;;;;;;;5.68;5.28;;;;;;;28.20;35.50;100663.56;5055003;28;20041;-63
2021/06/11 10:51:50;;;;;;;5.85;5.10;;;;;;;28.25;36.04;100661.19;5032444;28;20429;-64
2021/06/11 10:54:20;;;;;;;6.10;5.18;;;;;;;28.30;36.40;100652.47;5036324;28;20052;-64
2021/06/11 10:56:59;;;;;;;6.00;4.65;;;;;;;28.42;36.44;100658.34;5039190;28;20048;-64
2021/06/11 10:59:48;;;;;;;6.43;4.65;;;;;;;28.53;35.10;100652.47;5044672;28;20055;-63
2021/06/11 11:02:17;;;;;;;6.70;4.50;;;;;;;28.63;35.89;100661.25;5043950;28;20558;-65
2021/06/11 11:04:47;;;;;;;4.55;4.18;;;;;;;28.72;35.39;100653.84;5035843;28;20045;-65
2021/06/11 11:07:23;;;;;;;5.60;4.43;;;;;;;28.86;34.78;100644.91;5041689;28;20067;-62
2021/06/11 11:09:56;;;;;;;4.93;4.30;;;;;;;28.77;35.40;100652.28;5042368;28;20037;-66
2021/06/11 11:12:32;;;;;;;5.65;4.43;;;;;;;28.79;36.01;100652.97;5044212;28;20056;-64
2021/06/11 11:15:00;;;;;;;5.00;4.35;;;;;;;28.97;35.66;100638.97;5047036;28;20062;-63
2021/06/11 11:17:28;;;;;;;7.07;4.30;;;;;;;29.19;35.35;100643.53;5027092;28;20045;-64
2021/06/11 11:20:02;;;;;;;5.93;4.25;;;;;;;29.41;35.13;100633.63;5029074;28;20104;-63
2021/06/11 11:22:37;;;;;;;5.32;4.32;;;;;;;29.56;35.16;100631.72;5049018;28;20079;-64
2021/06/11 11:25:14;;;;;;;5.43;4.60;;;;;;;29.64;35.01;100631.63;5044641;28;20127;-64